Search for airport 
image banner adimage banner adimage banner ad
image banner ad

CCY3 - Sussex

Located in , Canada

ICAO - CCY3, IATA -

Data provided by Airmate  

General information

Coordinates: N45°41'11" W65°32'31"
Elevation is 467 feet MSL.
Magnetic variation is -17.6167° East
View others Airports in New Brunswick

Operational data

Special qualification required
Current time UTC:
Current local time:
Weather at : CYSJ - Saint John ( 49 km )
METAR: CYSJ 221500Z 20022G29KT 12SM BKN009 OVC015 17/15 A2981 RMK SF6SC2 SLP098 DENSITY ALT 800FT
TAF: TAF AMD CYSJ 221535Z 2215/2224 19018G28KT P6SM SCT006 OVC008 TEMPO 2215/2218 SCT012 OVC030 PROB40 2216/2218 2SM TSRA BR BKN030CB FM221800 20020G30KT P6SM -SHRA OVC010 TEMPO 2218/2224 3SM -SHRA BR BKN005 OVC010 PROB40 2218/2220 2SM TSRA BR BKN030CB RMK NXT FCST BY 221800Z
View NOTAMs / SUP AIP / TFR affecting this airport [VIEW]
Communications frequencies: [VIEW]

Runways:

RWY identifierQFULength (ft)Width (ft)SurfaceLDA (ft)
04320060GRAVE
22320060GRAVE

Airport contact information

Address: Canada

Satellite view of CCY3